createdAt,value
2023-02-02T00:00:59.126Z,-1.61
2023-02-02T00:06:03.224Z,-1.59
2023-02-02T00:11:07.206Z,-1.64
2023-02-02T00:16:29.343Z,-1.85
2023-02-02T00:21:33.325Z,-1.92
2023-02-02T00:26:38.061Z,-1.90
2023-02-02T00:31:41.296Z,-2.00
2023-02-02T00:36:45.774Z,-1.83
2023-02-02T00:41:49.543Z,-1.86
2023-02-02T00:46:53.171Z,-1.78
2023-02-02T00:51:56.896Z,-1.98
2023-02-02T00:57:00.382Z,-1.76
2023-02-02T01:02:03.817Z,-1.87
2023-02-02T01:07:06.990Z,-2.04
2023-02-02T01:12:10.189Z,-1.81
2023-02-02T01:17:14.565Z,-1.82
2023-02-02T01:22:18.458Z,-1.76
2023-02-02T01:27:23.069Z,-1.59
2023-02-02T01:32:26.162Z,-1.50
2023-02-02T01:37:29.637Z,-1.65
2023-02-02T01:42:32.693Z,-1.63
2023-02-02T01:47:41.550Z,-1.48
2023-02-02T01:52:49.820Z,-1.05
2023-02-02T01:58:14.278Z,-1.12
2023-02-02T02:03:24.599Z,-0.57
2023-02-02T02:08:31.481Z,-0.86
2023-02-02T02:13:58.238Z,-0.86
2023-02-02T02:20:02.423Z,-0.76
2023-02-02T02:32:06.622Z,-0.34
2023-02-02T02:37:35.088Z,-0.40
2023-02-02T02:42:44.306Z,-0.19
2023-02-02T02:47:50.392Z,-0.08
2023-02-02T02:59:39.067Z,0.40
2023-02-02T03:05:17.758Z,0.62
2023-02-02T03:10:25.727Z,0.95
2023-02-02T03:15:29.113Z,0.65
2023-02-02T03:20:33.245Z,0.79
2023-02-02T03:25:36.583Z,1.07
2023-02-02T03:30:42.135Z,1.68
2023-02-02T03:35:45.544Z,1.13
2023-02-02T03:40:49.245Z,0.50
2023-02-02T03:46:05.154Z,-0.02
2023-02-02T03:51:11.850Z,0.05
2023-02-02T03:56:16.374Z,-0.14
2023-02-02T04:01:29.207Z,-0.06
2023-02-02T04:06:33.197Z,0.14
2023-02-02T04:11:36.272Z,0.64
2023-02-02T04:16:40.413Z,0.81
2023-02-02T04:21:44.101Z,1.41
2023-02-02T04:26:47.255Z,1.68
2023-02-02T04:31:52.344Z,1.66
2023-02-02T04:36:56.658Z,1.80
2023-02-02T04:42:00.196Z,2.05
2023-02-02T04:47:04.367Z,2.13
2023-02-02T04:52:07.467Z,2.30
2023-02-02T04:57:13.096Z,2.28
2023-02-02T05:02:16.188Z,2.27
2023-02-02T05:07:19.367Z,2.11
2023-02-02T05:12:23.023Z,2.51
2023-02-02T05:17:26.115Z,2.46
2023-02-02T05:22:29.156Z,2.49
2023-02-02T05:27:32.561Z,2.28
2023-02-02T05:32:36.126Z,2.10
2023-02-02T05:52:54.861Z,1.52
2023-02-02T05:57:58.436Z,1.26
2023-02-02T06:08:39.380Z,-0.07
2023-02-02T06:13:45.906Z,0.38
2023-02-02T06:18:49.386Z,0.19
2023-02-02T06:23:52.893Z,-0.95
2023-02-02T06:28:56.107Z,0.50
2023-02-02T06:34:00.283Z,0.51
2023-02-02T06:39:05.460Z,0.74
2023-02-02T06:44:08.412Z,0.72
2023-02-02T06:49:11.446Z,1.17
2023-02-02T06:54:15.120Z,2.38
2023-02-02T06:59:18.400Z,2.70
2023-02-02T07:04:22.019Z,4.19
2023-02-02T07:09:25.456Z,5.17
2023-02-02T07:14:28.805Z,4.86
2023-02-02T07:19:32.451Z,5.35
2023-02-02T07:24:35.459Z,5.18
2023-02-02T07:29:38.878Z,5.56
2023-02-02T07:34:42.729Z,6.34
2023-02-02T07:39:46.863Z,6.55
2023-02-02T07:44:49.825Z,6.58
2023-02-02T07:49:52.825Z,6.73
2023-02-02T07:55:05.377Z,7.03
2023-02-02T08:00:16.588Z,7.00
2023-02-02T08:05:20.703Z,7.21
2023-02-02T08:10:23.740Z,7.49
2023-02-02T08:15:27.104Z,7.54
2023-02-02T08:20:35.192Z,7.73
2023-02-02T08:25:38.747Z,7.98
2023-02-02T08:30:41.801Z,8.29
2023-02-02T08:35:46.019Z,8.18
2023-02-02T08:40:50.003Z,8.52
2023-02-02T08:46:01.722Z,9.93
2023-02-02T08:51:10.681Z,10.59
2023-02-02T08:56:13.604Z,11.53
2023-02-02T09:01:18.485Z,13.59
2023-02-02T09:06:24.542Z,14.62
2023-02-02T09:11:28.906Z,14.99
2023-02-02T09:16:32.340Z,13.56
2023-02-02T09:21:37.504Z,13.28
2023-02-02T09:26:41.421Z,13.32
2023-02-02T09:31:44.589Z,13.75
2023-02-02T09:36:47.945Z,13.68
2023-02-02T09:42:23.335Z,13.76
2023-02-02T09:47:53.887Z,13.33
2023-02-02T09:53:12.954Z,13.38
2023-02-02T09:58:29.018Z,13.01
2023-02-02T10:03:54.849Z,13.95
2023-02-02T10:09:28.573Z,15.04
2023-02-02T10:14:42.539Z,15.72
2023-02-02T10:19:45.796Z,14.87
2023-02-02T10:24:48.876Z,14.52
2023-02-02T10:30:03.898Z,13.98
2023-02-02T10:35:13.990Z,15.69
2023-02-02T10:40:20.645Z,13.50
2023-02-02T10:45:23.921Z,14.32
2023-02-02T10:50:28.538Z,14.26
2023-02-02T10:55:37.418Z,13.21
2023-02-02T11:00:46.894Z,12.69
2023-02-02T11:06:08.442Z,11.94
2023-02-02T11:11:17.364Z,11.20
2023-02-02T11:16:23.241Z,11.09
2023-02-02T11:21:32.509Z,11.27
2023-02-02T11:27:07.750Z,10.82
2023-02-02T11:32:21.298Z,10.49
2023-02-02T11:37:25.156Z,10.18
2023-02-02T11:42:29.344Z,10.28
2023-02-02T11:47:34.382Z,9.93
2023-02-02T11:52:40.495Z,9.13
2023-02-02T11:58:12.641Z,9.31
2023-02-02T12:03:28.718Z,9.44
2023-02-02T12:08:31.814Z,9.88
2023-02-02T12:13:53.217Z,9.19
2023-02-02T12:19:27.021Z,9.84
2023-02-02T12:24:43.674Z,9.71
2023-02-02T12:30:01.579Z,9.86
2023-02-02T12:35:13.735Z,9.49
2023-02-02T12:40:35.238Z,9.59
2023-02-02T12:45:43.594Z,9.61
2023-02-02T12:51:04.110Z,9.24
2023-02-02T12:56:16.616Z,8.95
2023-02-02T13:01:44.456Z,9.06
2023-02-02T13:07:28.991Z,9.22
2023-02-02T13:12:38.578Z,9.36
2023-02-02T13:17:52.241Z,9.66
2023-02-02T13:22:59.241Z,11.05
2023-02-02T13:28:07.002Z,14.46
2023-02-02T13:33:33.368Z,15.19
2023-02-02T13:38:42.398Z,15.14
2023-02-02T13:44:09.834Z,13.11
2023-02-02T13:49:27.940Z,11.97
2023-02-02T13:54:39.922Z,11.77
2023-02-02T13:59:51.920Z,11.43
2023-02-02T14:05:01.347Z,10.98
2023-02-02T14:10:04.987Z,10.82
2023-02-02T14:15:13.443Z,10.83
2023-02-02T14:20:41.938Z,10.64
2023-02-02T14:25:45.324Z,10.73
2023-02-02T14:31:37.582Z,10.37
2023-02-02T14:36:50.264Z,10.10
2023-02-02T14:42:15.108Z,10.13
2023-02-02T14:47:46.069Z,9.85
2023-02-02T14:53:02.991Z,9.56
2023-02-02T14:58:07.444Z,9.46
2023-02-02T15:03:49.459Z,9.56
2023-02-02T15:09:20.686Z,9.33
2023-02-02T15:14:27.734Z,9.09
2023-02-02T15:20:14.639Z,9.15
2023-02-02T15:25:49.540Z,9.05
2023-02-02T15:31:01.188Z,8.78
2023-02-02T15:36:26.101Z,8.90
2023-02-02T15:41:35.438Z,8.82
2023-02-02T15:46:38.811Z,8.55
2023-02-02T15:51:54.287Z,8.29
2023-02-02T15:56:59.792Z,8.17
2023-02-02T16:02:27.127Z,8.03
2023-02-02T16:07:34.454Z,7.83
2023-02-02T16:12:41.252Z,7.70
2023-02-02T16:17:44.119Z,7.55
2023-02-02T16:22:48.121Z,7.32
2023-02-02T16:27:53.266Z,7.33
2023-02-02T16:32:56.636Z,7.16
2023-02-02T16:38:18.769Z,6.86
2023-02-02T16:43:28.869Z,6.34
2023-02-02T16:48:39.600Z,6.45
2023-02-02T16:53:49.821Z,6.23
2023-02-02T16:58:58.257Z,6.22
2023-02-02T17:04:02.235Z,6.16
2023-02-02T17:09:16.879Z,6.11
2023-02-02T17:14:21.061Z,5.97
2023-02-02T17:19:25.057Z,5.87
2023-02-02T17:24:30.062Z,5.80
2023-02-02T17:29:35.481Z,5.86
2023-02-02T17:34:38.892Z,5.58
2023-02-02T17:39:42.302Z,5.38
2023-02-02T17:44:45.742Z,5.29
2023-02-02T17:49:49.768Z,5.19
2023-02-02T17:54:52.709Z,5.07
2023-02-02T17:59:56.237Z,4.94
2023-02-02T18:04:59.592Z,4.78
2023-02-02T18:10:02.990Z,4.68
2023-02-02T18:15:08.367Z,4.59
2023-02-02T18:20:15.666Z,4.52
2023-02-02T18:25:18.634Z,4.46
2023-02-02T18:30:22.037Z,4.31
2023-02-02T18:35:26.206Z,4.29
2023-02-02T18:40:29.395Z,4.14
2023-02-02T18:45:33.633Z,3.79
2023-02-02T18:50:37.039Z,3.46
2023-02-02T18:55:40.903Z,3.20
2023-02-02T19:00:45.625Z,2.96
2023-02-02T19:06:08.115Z,2.95
2023-02-02T19:11:39.300Z,2.71
2023-02-02T19:16:44.614Z,2.55
2023-02-02T19:21:48.009Z,2.34
2023-02-02T19:26:51.135Z,2.15
2023-02-02T19:32:03.034Z,1.99
2023-02-02T19:37:24.866Z,1.80
2023-02-02T19:42:28.736Z,1.66
2023-02-02T19:47:33.824Z,1.30
2023-02-02T19:52:37.069Z,1.38
2023-02-02T19:57:42.206Z,1.32
2023-02-02T20:03:02.089Z,1.27
2023-02-02T20:08:30.216Z,1.27
2023-02-02T20:13:43.005Z,1.27
2023-02-02T20:18:52.238Z,1.27
2023-02-02T20:23:55.145Z,1.20
2023-02-02T20:29:01.168Z,1.04
2023-02-02T20:34:23.454Z,0.81
2023-02-02T20:39:33.076Z,1.03
2023-02-02T20:44:36.762Z,0.86
2023-02-02T20:49:40.282Z,0.68
2023-02-02T20:54:43.670Z,0.80
2023-02-02T20:59:46.999Z,0.86
2023-02-02T21:04:51.413Z,0.90
2023-02-02T21:09:54.340Z,0.81
2023-02-02T21:14:58.337Z,0.77
2023-02-02T21:20:01.297Z,0.75
2023-02-02T21:25:05.302Z,0.85
2023-02-02T21:30:11.017Z,1.09
2023-02-02T21:35:15.237Z,0.95
2023-02-02T21:40:30.059Z,0.93
2023-02-02T21:45:39.396Z,0.87
2023-02-02T21:50:43.243Z,0.78
2023-02-02T21:55:59.614Z,0.89
2023-02-02T22:01:24.361Z,0.77
2023-02-02T22:06:31.124Z,0.47
2023-02-02T22:11:49.787Z,0.58
2023-02-02T22:16:57.173Z,0.44
2023-02-02T22:22:09.179Z,0.52
2023-02-02T22:27:24.556Z,0.56
2023-02-02T22:32:52.938Z,0.61
2023-02-02T22:37:56.420Z,0.44
2023-02-02T22:43:05.954Z,0.52
2023-02-02T22:48:09.345Z,0.53
2023-02-02T22:53:14.233Z,0.55
2023-02-02T22:58:17.145Z,0.50
2023-02-02T23:03:20.214Z,0.56
2023-02-02T23:08:23.610Z,0.58
2023-02-02T23:13:27.115Z,0.72
2023-02-02T23:18:30.035Z,0.77
2023-02-02T23:23:32.995Z,0.69
2023-02-02T23:28:36.359Z,0.67
2023-02-02T23:33:40.061Z,0.64
2023-02-02T23:38:43.189Z,0.76
2023-02-02T23:43:46.811Z,0.82
2023-02-02T23:48:49.857Z,0.79
2023-02-02T23:53:53.380Z,0.83
2023-02-02T23:58:57.275Z,0.79
